sensor_id;sensor_type;location;lat;lon;timestamp;P1;durP1;ratioP1;P2;durP2;ratioP2
12214;SDS011;6170;42.206;24.142;2022-12-18T00:00:08;30.83;;;20.70;;
12214;SDS011;6170;42.206;24.142;2022-12-18T00:02:35;31.48;;;19.52;;
12214;SDS011;6170;42.206;24.142;2022-12-18T00:05:02;30.83;;;20.73;;
12214;SDS011;6170;42.206;24.142;2022-12-18T00:07:29;31.25;;;20.13;;
12214;SDS011;6170;42.206;24.142;2022-12-18T00:09:56;27.88;;;19.67;;
12214;SDS011;6170;42.206;24.142;2022-12-18T00:12:23;27.75;;;18.50;;
12214;SDS011;6170;42.206;24.142;2022-12-18T00:14:51;27.10;;;18.90;;
12214;SDS011;6170;42.206;24.142;2022-12-18T00:17:18;29.13;;;19.77;;
12214;SDS011;6170;42.206;24.142;2022-12-18T00:19:45;26.92;;;18.95;;
12214;SDS011;6170;42.206;24.142;2022-12-18T00:22:11;29.27;;;18.70;;
12214;SDS011;6170;42.206;24.142;2022-12-18T00:24:38;31.10;;;19.05;;
12214;SDS011;6170;42.206;24.142;2022-12-18T00:27:05;26.55;;;18.20;;
12214;SDS011;6170;42.206;24.142;2022-12-18T00:29:32;30.23;;;19.90;;
12214;SDS011;6170;42.206;24.142;2022-12-18T00:32:00;28.27;;;17.10;;
12214;SDS011;6170;42.206;24.142;2022-12-18T00:34:27;24.80;;;17.05;;
12214;SDS011;6170;42.206;24.142;2022-12-18T00:36:54;22.70;;;15.85;;
12214;SDS011;6170;42.206;24.142;2022-12-18T00:39:20;25.83;;;16.75;;
12214;SDS011;6170;42.206;24.142;2022-12-18T00:41:47;23.27;;;16.08;;
12214;SDS011;6170;42.206;24.142;2022-12-18T00:44:31;27.65;;;16.00;;
12214;SDS011;6170;42.206;24.142;2022-12-18T00:46:58;24.38;;;16.50;;
12214;SDS011;6170;42.206;24.142;2022-12-18T00:49:26;22.05;;;15.80;;
12214;SDS011;6170;42.206;24.142;2022-12-18T00:51:53;24.35;;;15.57;;
12214;SDS011;6170;42.206;24.142;2022-12-18T00:54:20;21.60;;;15.65;;
12214;SDS011;6170;42.206;24.142;2022-12-18T00:56:47;20.52;;;15.35;;
12214;SDS011;6170;42.206;24.142;2022-12-18T00:59:13;21.20;;;15.23;;
12214;SDS011;6170;42.206;24.142;2022-12-18T01:01:40;21.42;;;14.82;;
12214;SDS011;6170;42.206;24.142;2022-12-18T01:04:07;18.20;;;13.20;;
12214;SDS011;6170;42.206;24.142;2022-12-18T01:06:35;19.98;;;14.48;;
12214;SDS011;6170;42.206;24.142;2022-12-18T01:09:02;21.92;;;14.68;;
12214;SDS011;6170;42.206;24.142;2022-12-18T01:11:29;19.25;;;14.02;;
12214;SDS011;6170;42.206;24.142;2022-12-18T01:13:56;19.85;;;13.88;;
12214;SDS011;6170;42.206;24.142;2022-12-18T01:16:25;27.00;;;13.13;;
12214;SDS011;6170;42.206;24.142;2022-12-18T01:18:52;19.40;;;13.55;;
12214;SDS011;6170;42.206;24.142;2022-12-18T01:21:20;19.40;;;13.73;;
12214;SDS011;6170;42.206;24.142;2022-12-18T01:23:51;20.92;;;14.00;;
12214;SDS011;6170;42.206;24.142;2022-12-18T01:26:19;17.92;;;12.48;;
12214;SDS011;6170;42.206;24.142;2022-12-18T01:28:46;18.25;;;13.18;;
12214;SDS011;6170;42.206;24.142;2022-12-18T01:31:15;20.10;;;13.05;;
12214;SDS011;6170;42.206;24.142;2022-12-18T01:33:44;17.75;;;12.45;;
12214;SDS011;6170;42.206;24.142;2022-12-18T01:36:15;18.67;;;11.68;;
12214;SDS011;6170;42.206;24.142;2022-12-18T01:38:43;16.02;;;12.50;;
12214;SDS011;6170;42.206;24.142;2022-12-18T01:41:13;19.40;;;12.02;;
12214;SDS011;6170;42.206;24.142;2022-12-18T01:43:42;16.85;;;12.65;;
12214;SDS011;6170;42.206;24.142;2022-12-18T01:46:10;19.52;;;11.93;;
12214;SDS011;6170;42.206;24.142;2022-12-18T01:48:37;17.35;;;12.57;;
12214;SDS011;6170;42.206;24.142;2022-12-18T01:51:06;15.90;;;10.88;;
12214;SDS011;6170;42.206;24.142;2022-12-18T01:53:34;14.57;;;11.10;;
12214;SDS011;6170;42.206;24.142;2022-12-18T01:56:03;18.42;;;11.30;;
12214;SDS011;6170;42.206;24.142;2022-12-18T01:58:32;15.50;;;11.02;;
12214;SDS011;6170;42.206;24.142;2022-12-18T02:01:06;16.52;;;11.27;;
12214;SDS011;6170;42.206;24.142;2022-12-18T02:03:33;13.40;;;9.65;;
12214;SDS011;6170;42.206;24.142;2022-12-18T02:06:01;15.27;;;10.07;;
12214;SDS011;6170;42.206;24.142;2022-12-18T02:08:37;15.65;;;10.73;;
12214;SDS011;6170;42.206;24.142;2022-12-18T02:11:10;21.55;;;10.48;;
12214;SDS011;6170;42.206;24.142;2022-12-18T02:13:50;14.23;;;10.45;;
12214;SDS011;6170;42.206;24.142;2022-12-18T02:16:24;15.10;;;10.18;;
12214;SDS011;6170;42.206;24.142;2022-12-18T02:21:26;13.75;;;9.88;;
12214;SDS011;6170;42.206;24.142;2022-12-18T02:24:02;14.25;;;9.85;;
12214;SDS011;6170;42.206;24.142;2022-12-18T02:26:44;15.23;;;9.60;;
12214;SDS011;6170;42.206;24.142;2022-12-18T02:29:16;16.05;;;10.95;;
12214;SDS011;6170;42.206;24.142;2022-12-18T02:31:48;13.55;;;9.93;;
12214;SDS011;6170;42.206;24.142;2022-12-18T02:34:18;17.85;;;10.52;;
12214;SDS011;6170;42.206;24.142;2022-12-18T02:36:48;14.05;;;10.18;;
12214;SDS011;6170;42.206;24.142;2022-12-18T02:39:16;11.95;;;8.88;;
12214;SDS011;6170;42.206;24.142;2022-12-18T02:41:48;11.77;;;8.38;;
12214;SDS011;6170;42.206;24.142;2022-12-18T02:44:16;13.55;;;9.27;;
12214;SDS011;6170;42.206;24.142;2022-12-18T02:46:44;12.90;;;8.88;;
12214;SDS011;6170;42.206;24.142;2022-12-18T02:49:18;13.00;;;7.97;;
12214;SDS011;6170;42.206;24.142;2022-12-18T02:51:52;12.13;;;8.45;;
12214;SDS011;6170;42.206;24.142;2022-12-18T02:54:23;13.35;;;8.88;;
12214;SDS011;6170;42.206;24.142;2022-12-18T02:57:02;15.50;;;9.20;;
12214;SDS011;6170;42.206;24.142;2022-12-18T02:59:38;10.40;;;8.18;;
12214;SDS011;6170;42.206;24.142;2022-12-18T03:02:12;10.95;;;8.43;;
12214;SDS011;6170;42.206;24.142;2022-12-18T03:04:47;11.93;;;8.23;;
12214;SDS011;6170;42.206;24.142;2022-12-18T03:07:26;12.10;;;7.63;;
12214;SDS011;6170;42.206;24.142;2022-12-18T03:10:00;10.35;;;7.57;;
12214;SDS011;6170;42.206;24.142;2022-12-18T03:12:30;11.25;;;6.93;;
12214;SDS011;6170;42.206;24.142;2022-12-18T03:15:01;10.25;;;7.47;;
12214;SDS011;6170;42.206;24.142;2022-12-18T03:17:31;8.48;;;6.57;;
12214;SDS011;6170;42.206;24.142;2022-12-18T03:20:00;12.25;;;7.70;;
12214;SDS011;6170;42.206;24.142;2022-12-18T03:22:30;9.98;;;6.82;;
12214;SDS011;6170;42.206;24.142;2022-12-18T03:25:00;11.57;;;6.22;;
12214;SDS011;6170;42.206;24.142;2022-12-18T03:27:30;9.90;;;6.88;;
12214;SDS011;6170;42.206;24.142;2022-12-18T03:30:00;11.13;;;7.18;;
12214;SDS011;6170;42.206;24.142;2022-12-18T03:35:02;9.93;;;6.95;;
12214;SDS011;6170;42.206;24.142;2022-12-18T03:37:31;10.30;;;6.60;;
12214;SDS011;6170;42.206;24.142;2022-12-18T03:39:58;10.32;;;6.65;;
12214;SDS011;6170;42.206;24.142;2022-12-18T03:42:26;7.63;;;6.15;;
12214;SDS011;6170;42.206;24.142;2022-12-18T03:45:00;9.98;;;6.25;;
12214;SDS011;6170;42.206;24.142;2022-12-18T03:47:36;9.25;;;6.75;;
12214;SDS011;6170;42.206;24.142;2022-12-18T03:50:10;11.25;;;6.85;;
12214;SDS011;6170;42.206;24.142;2022-12-18T03:52:41;10.48;;;7.07;;
12214;SDS011;6170;42.206;24.142;2022-12-18T03:55:14;11.40;;;6.63;;
12214;SDS011;6170;42.206;24.142;2022-12-18T03:57:43;9.75;;;5.88;;
12214;SDS011;6170;42.206;24.142;2022-12-18T04:00:13;10.68;;;6.07;;
12214;SDS011;6170;42.206;24.142;2022-12-18T04:02:43;9.27;;;6.00;;
12214;SDS011;6170;42.206;24.142;2022-12-18T04:05:12;9.70;;;6.05;;
12214;SDS011;6170;42.206;24.142;2022-12-18T04:07:41;12.65;;;6.07;;
12214;SDS011;6170;42.206;24.142;2022-12-18T04:10:11;8.68;;;5.50;;
12214;SDS011;6170;42.206;24.142;2022-12-18T04:12:40;12.80;;;6.72;;
12214;SDS011;6170;42.206;24.142;2022-12-18T04:15:07;8.98;;;5.65;;
12214;SDS011;6170;42.206;24.142;2022-12-18T04:17:35;11.30;;;6.47;;
12214;SDS011;6170;42.206;24.142;2022-12-18T04:20:03;9.50;;;6.00;;
12214;SDS011;6170;42.206;24.142;2022-12-18T04:22:30;9.43;;;6.18;;
12214;SDS011;6170;42.206;24.142;2022-12-18T04:24:57;8.73;;;5.50;;
12214;SDS011;6170;42.206;24.142;2022-12-18T04:27:23;10.38;;;5.63;;
12214;SDS011;6170;42.206;24.142;2022-12-18T04:29:50;9.07;;;5.82;;
12214;SDS011;6170;42.206;24.142;2022-12-18T04:32:17;10.00;;;5.88;;
12214;SDS011;6170;42.206;24.142;2022-12-18T04:34:45;10.07;;;5.80;;
12214;SDS011;6170;42.206;24.142;2022-12-18T04:37:12;9.10;;;6.07;;
12214;SDS011;6170;42.206;24.142;2022-12-18T04:39:38;9.65;;;5.97;;
12214;SDS011;6170;42.206;24.142;2022-12-18T04:42:05;11.38;;;5.82;;
12214;SDS011;6170;42.206;24.142;2022-12-18T04:44:32;11.32;;;6.18;;
12214;SDS011;6170;42.206;24.142;2022-12-18T04:46:59;10.00;;;5.80;;
12214;SDS011;6170;42.206;24.142;2022-12-18T04:49:26;11.60;;;5.97;;
12214;SDS011;6170;42.206;24.142;2022-12-18T04:51:54;8.27;;;5.18;;
12214;SDS011;6170;42.206;24.142;2022-12-18T04:54:21;8.93;;;6.07;;
12214;SDS011;6170;42.206;24.142;2022-12-18T04:56:47;9.43;;;5.40;;
12214;SDS011;6170;42.206;24.142;2022-12-18T04:59:14;11.25;;;5.95;;
12214;SDS011;6170;42.206;24.142;2022-12-18T05:01:41;7.53;;;5.43;;
12214;SDS011;6170;42.206;24.142;2022-12-18T05:04:07;9.77;;;5.70;;
12214;SDS011;6170;42.206;24.142;2022-12-18T05:06:34;7.38;;;5.22;;
12214;SDS011;6170;42.206;24.142;2022-12-18T05:09:02;8.88;;;5.70;;
12214;SDS011;6170;42.206;24.142;2022-12-18T05:11:29;10.65;;;5.45;;
12214;SDS011;6170;42.206;24.142;2022-12-18T05:13:56;7.75;;;4.82;;
12214;SDS011;6170;42.206;24.142;2022-12-18T05:16:22;8.40;;;5.07;;
12214;SDS011;6170;42.206;24.142;2022-12-18T05:18:49;11.18;;;4.97;;
12214;SDS011;6170;42.206;24.142;2022-12-18T05:21:16;7.53;;;4.90;;
12214;SDS011;6170;42.206;24.142;2022-12-18T05:23:43;7.10;;;5.10;;
12214;SDS011;6170;42.206;24.142;2022-12-18T05:26:14;8.88;;;4.65;;
12214;SDS011;6170;42.206;24.142;2022-12-18T05:28:43;11.93;;;5.35;;
12214;SDS011;6170;42.206;24.142;2022-12-18T05:31:11;6.57;;;4.43;;
12214;SDS011;6170;42.206;24.142;2022-12-18T05:33:37;6.82;;;4.60;;
12214;SDS011;6170;42.206;24.142;2022-12-18T05:36:05;10.98;;;4.65;;
12214;SDS011;6170;42.206;24.142;2022-12-18T05:38:34;7.55;;;4.03;;
12214;SDS011;6170;42.206;24.142;2022-12-18T05:41:02;6.15;;;4.15;;
12214;SDS011;6170;42.206;24.142;2022-12-18T05:43:31;8.10;;;4.97;;
12214;SDS011;6170;42.206;24.142;2022-12-18T05:46:03;6.70;;;4.40;;
12214;SDS011;6170;42.206;24.142;2022-12-18T05:48:30;6.28;;;4.35;;
12214;SDS011;6170;42.206;24.142;2022-12-18T05:51:02;9.75;;;4.63;;
12214;SDS011;6170;42.206;24.142;2022-12-18T05:53:31;9.07;;;4.57;;
12214;SDS011;6170;42.206;24.142;2022-12-18T05:55:59;9.25;;;4.90;;
12214;SDS011;6170;42.206;24.142;2022-12-18T05:58:27;8.50;;;4.78;;
12214;SDS011;6170;42.206;24.142;2022-12-18T06:00:55;5.70;;;4.35;;
12214;SDS011;6170;42.206;24.142;2022-12-18T06:03:22;7.97;;;4.97;;
12214;SDS011;6170;42.206;24.142;2022-12-18T06:05:49;6.25;;;4.07;;
12214;SDS011;6170;42.206;24.142;2022-12-18T06:08:15;6.95;;;4.78;;
12214;SDS011;6170;42.206;24.142;2022-12-18T06:10:48;7.55;;;4.75;;
12214;SDS011;6170;42.206;24.142;2022-12-18T06:13:17;7.70;;;4.90;;
12214;SDS011;6170;42.206;24.142;2022-12-18T06:15:44;9.10;;;5.50;;
12214;SDS011;6170;42.206;24.142;2022-12-18T06:18:12;9.77;;;6.97;;
12214;SDS011;6170;42.206;24.142;2022-12-18T06:20:39;13.90;;;7.70;;
12214;SDS011;6170;42.206;24.142;2022-12-18T06:23:06;8.20;;;5.32;;
12214;SDS011;6170;42.206;24.142;2022-12-18T06:25:36;9.55;;;5.50;;
12214;SDS011;6170;42.206;24.142;2022-12-18T06:28:03;7.55;;;5.45;;
12214;SDS011;6170;42.206;24.142;2022-12-18T06:30:30;9.25;;;5.47;;
12214;SDS011;6170;42.206;24.142;2022-12-18T06:32:57;7.80;;;5.25;;
12214;SDS011;6170;42.206;24.142;2022-12-18T06:35:25;8.82;;;5.10;;
12214;SDS011;6170;42.206;24.142;2022-12-18T06:37:52;9.82;;;5.50;;
12214;SDS011;6170;42.206;24.142;2022-12-18T06:40:19;7.70;;;5.22;;
12214;SDS011;6170;42.206;24.142;2022-12-18T06:42:45;8.10;;;5.45;;
12214;SDS011;6170;42.206;24.142;2022-12-18T06:45:15;12.43;;;6.45;;
12214;SDS011;6170;42.206;24.142;2022-12-18T06:47:42;9.30;;;6.88;;
12214;SDS011;6170;42.206;24.142;2022-12-18T06:50:09;12.32;;;7.50;;
12214;SDS011;6170;42.206;24.142;2022-12-18T06:52:37;12.07;;;7.90;;
12214;SDS011;6170;42.206;24.142;2022-12-18T06:55:08;11.30;;;6.50;;
12214;SDS011;6170;42.206;24.142;2022-12-18T06:57:35;7.85;;;5.43;;
12214;SDS011;6170;42.206;24.142;2022-12-18T07:00:02;7.85;;;4.97;;
12214;SDS011;6170;42.206;24.142;2022-12-18T07:02:30;9.82;;;5.50;;
12214;SDS011;6170;42.206;24.142;2022-12-18T07:04:57;12.25;;;6.07;;
12214;SDS011;6170;42.206;24.142;2022-12-18T07:07:24;8.63;;;5.68;;
12214;SDS011;6170;42.206;24.142;2022-12-18T07:09:52;8.88;;;5.88;;
12214;SDS011;6170;42.206;24.142;2022-12-18T07:12:19;9.05;;;6.13;;
12214;SDS011;6170;42.206;24.142;2022-12-18T07:14:46;11.07;;;6.82;;
12214;SDS011;6170;42.206;24.142;2022-12-18T07:17:13;9.85;;;6.55;;
12214;SDS011;6170;42.206;24.142;2022-12-18T07:19:39;8.15;;;5.30;;
12214;SDS011;6170;42.206;24.142;2022-12-18T07:22:06;9.32;;;5.95;;
12214;SDS011;6170;42.206;24.142;2022-12-18T07:24:33;12.32;;;6.40;;
12214;SDS011;6170;42.206;24.142;2022-12-18T07:27:01;8.98;;;5.70;;
12214;SDS011;6170;42.206;24.142;2022-12-18T07:29:28;11.60;;;6.20;;
12214;SDS011;6170;42.206;24.142;2022-12-18T07:31:55;14.35;;;6.20;;
12214;SDS011;6170;42.206;24.142;2022-12-18T07:34:21;10.68;;;6.82;;
12214;SDS011;6170;42.206;24.142;2022-12-18T07:36:48;9.00;;;6.15;;
12214;SDS011;6170;42.206;24.142;2022-12-18T07:39:15;11.68;;;6.32;;
12214;SDS011;6170;42.206;24.142;2022-12-18T07:41:42;12.88;;;8.38;;
12214;SDS011;6170;42.206;24.142;2022-12-18T07:44:12;10.55;;;6.70;;
12214;SDS011;6170;42.206;24.142;2022-12-18T07:46:39;10.45;;;6.53;;
12214;SDS011;6170;42.206;24.142;2022-12-18T07:49:06;16.42;;;7.60;;
12214;SDS011;6170;42.206;24.142;2022-12-18T07:51:33;10.52;;;6.70;;
12214;SDS011;6170;42.206;24.142;2022-12-18T07:53:59;10.20;;;6.53;;
12214;SDS011;6170;42.206;24.142;2022-12-18T07:56:26;11.68;;;7.68;;
12214;SDS011;6170;42.206;24.142;2022-12-18T07:58:53;18.38;;;9.63;;
12214;SDS011;6170;42.206;24.142;2022-12-18T08:01:21;9.65;;;6.22;;
12214;SDS011;6170;42.206;24.142;2022-12-18T08:03:48;13.32;;;7.70;;
12214;SDS011;6170;42.206;24.142;2022-12-18T08:06:15;10.80;;;6.95;;
12214;SDS011;6170;42.206;24.142;2022-12-18T08:08:42;14.07;;;8.30;;
12214;SDS011;6170;42.206;24.142;2022-12-18T08:11:08;13.77;;;7.72;;
12214;SDS011;6170;42.206;24.142;2022-12-18T08:13:35;15.05;;;7.25;;
12214;SDS011;6170;42.206;24.142;2022-12-18T08:16:03;15.98;;;8.32;;
12214;SDS011;6170;42.206;24.142;2022-12-18T08:18:33;12.77;;;7.97;;
12214;SDS011;6170;42.206;24.142;2022-12-18T08:21:07;13.35;;;7.50;;
12214;SDS011;6170;42.206;24.142;2022-12-18T08:23:35;11.02;;;7.60;;
12214;SDS011;6170;42.206;24.142;2022-12-18T08:26:02;12.25;;;7.45;;
12214;SDS011;6170;42.206;24.142;2022-12-18T08:28:28;11.40;;;7.95;;
12214;SDS011;6170;42.206;24.142;2022-12-18T08:30:55;16.88;;;9.63;;
12214;SDS011;6170;42.206;24.142;2022-12-18T08:33:22;12.10;;;8.20;;
12214;SDS011;6170;42.206;24.142;2022-12-18T08:35:51;12.70;;;8.05;;
12214;SDS011;6170;42.206;24.142;2022-12-18T08:38:18;12.40;;;7.65;;
12214;SDS011;6170;42.206;24.142;2022-12-18T08:40:44;12.30;;;7.30;;
12214;SDS011;6170;42.206;24.142;2022-12-18T08:43:11;15.57;;;9.90;;
12214;SDS011;6170;42.206;24.142;2022-12-18T08:45:56;12.20;;;7.78;;
12214;SDS011;6170;42.206;24.142;2022-12-18T08:48:23;14.85;;;8.70;;
12214;SDS011;6170;42.206;24.142;2022-12-18T08:50:57;17.77;;;10.10;;
12214;SDS011;6170;42.206;24.142;2022-12-18T08:53:25;20.25;;;10.70;;
12214;SDS011;6170;42.206;24.142;2022-12-18T08:55:53;13.00;;;7.55;;
12214;SDS011;6170;42.206;24.142;2022-12-18T08:58:20;29.63;;;12.70;;
12214;SDS011;6170;42.206;24.142;2022-12-18T09:00:47;14.95;;;8.38;;
12214;SDS011;6170;42.206;24.142;2022-12-18T09:03:14;17.00;;;8.85;;
12214;SDS011;6170;42.206;24.142;2022-12-18T09:05:42;14.88;;;9.07;;
12214;SDS011;6170;42.206;24.142;2022-12-18T09:08:11;18.63;;;10.32;;
12214;SDS011;6170;42.206;24.142;2022-12-18T09:10:41;20.33;;;11.70;;
12214;SDS011;6170;42.206;24.142;2022-12-18T09:13:08;14.82;;;9.52;;
12214;SDS011;6170;42.206;24.142;2022-12-18T09:15:39;18.25;;;11.20;;
12214;SDS011;6170;42.206;24.142;2022-12-18T09:18:06;28.77;;;14.98;;
12214;SDS011;6170;42.206;24.142;2022-12-18T09:20:34;20.65;;;10.73;;
12214;SDS011;6170;42.206;24.142;2022-12-18T09:23:01;18.20;;;10.82;;
12214;SDS011;6170;42.206;24.142;2022-12-18T09:25:30;17.35;;;9.90;;
12214;SDS011;6170;42.206;24.142;2022-12-18T09:27:58;19.65;;;12.25;;
12214;SDS011;6170;42.206;24.142;2022-12-18T09:30:25;15.85;;;9.38;;
12214;SDS011;6170;42.206;24.142;2022-12-18T09:32:52;17.27;;;9.77;;
12214;SDS011;6170;42.206;24.142;2022-12-18T09:35:18;17.85;;;10.48;;
12214;SDS011;6170;42.206;24.142;2022-12-18T09:37:45;16.08;;;9.43;;
12214;SDS011;6170;42.206;24.142;2022-12-18T09:40:12;20.33;;;11.10;;
12214;SDS011;6170;42.206;24.142;2022-12-18T09:42:42;26.67;;;13.45;;
12214;SDS011;6170;42.206;24.142;2022-12-18T09:45:12;18.25;;;10.65;;
12214;SDS011;6170;42.206;24.142;2022-12-18T09:47:41;27.48;;;14.77;;
12214;SDS011;6170;42.206;24.142;2022-12-18T09:50:17;21.23;;;13.05;;
12214;SDS011;6170;42.206;24.142;2022-12-18T09:52:51;19.83;;;11.30;;
12214;SDS011;6170;42.206;24.142;2022-12-18T09:55:22;21.70;;;13.02;;
12214;SDS011;6170;42.206;24.142;2022-12-18T09:57:56;16.35;;;9.35;;
12214;SDS011;6170;42.206;24.142;2022-12-18T10:02:56;19.88;;;11.13;;
12214;SDS011;6170;42.206;24.142;2022-12-18T10:05:29;22.10;;;13.55;;
12214;SDS011;6170;42.206;24.142;2022-12-18T10:08:05;16.58;;;9.88;;
12214;SDS011;6170;42.206;24.142;2022-12-18T10:10:37;16.73;;;10.52;;
12214;SDS011;6170;42.206;24.142;2022-12-18T10:13:12;15.98;;;10.23;;
12214;SDS011;6170;42.206;24.142;2022-12-18T10:15:50;17.00;;;9.95;;
12214;SDS011;6170;42.206;24.142;2022-12-18T10:18:27;14.35;;;9.05;;
12214;SDS011;6170;42.206;24.142;2022-12-18T10:21:08;17.02;;;9.77;;
12214;SDS011;6170;42.206;24.142;2022-12-18T10:23:39;19.70;;;11.13;;
12214;SDS011;6170;42.206;24.142;2022-12-18T10:26:13;16.65;;;10.32;;
12214;SDS011;6170;42.206;24.142;2022-12-18T10:28:41;21.80;;;12.52;;
12214;SDS011;6170;42.206;24.142;2022-12-18T10:31:12;18.15;;;9.93;;
12214;SDS011;6170;42.206;24.142;2022-12-18T10:33:43;18.70;;;11.35;;
12214;SDS011;6170;42.206;24.142;2022-12-18T10:36:09;18.48;;;10.52;;
12214;SDS011;6170;42.206;24.142;2022-12-18T10:38:37;19.83;;;10.85;;
12214;SDS011;6170;42.206;24.142;2022-12-18T10:41:04;14.05;;;9.13;;
12214;SDS011;6170;42.206;24.142;2022-12-18T10:43:35;19.25;;;11.25;;
12214;SDS011;6170;42.206;24.142;2022-12-18T10:46:14;18.08;;;9.88;;
12214;SDS011;6170;42.206;24.142;2022-12-18T10:48:50;18.80;;;9.85;;
12214;SDS011;6170;42.206;24.142;2022-12-18T10:51:20;14.82;;;8.65;;
12214;SDS011;6170;42.206;24.142;2022-12-18T10:53:52;14.55;;;9.38;;
12214;SDS011;6170;42.206;24.142;2022-12-18T10:56:22;14.45;;;9.18;;
12214;SDS011;6170;42.206;24.142;2022-12-18T10:58:55;18.05;;;9.55;;
12214;SDS011;6170;42.206;24.142;2022-12-18T11:01:25;15.35;;;9.32;;
12214;SDS011;6170;42.206;24.142;2022-12-18T11:04:01;16.17;;;9.80;;
12214;SDS011;6170;42.206;24.142;2022-12-18T11:06:34;21.90;;;11.13;;
12214;SDS011;6170;42.206;24.142;2022-12-18T11:09:19;20.75;;;10.48;;
12214;SDS011;6170;42.206;24.142;2022-12-18T11:11:48;27.38;;;14.55;;
12214;SDS011;6170;42.206;24.142;2022-12-18T11:14:18;31.77;;;14.98;;
12214;SDS011;6170;42.206;24.142;2022-12-18T11:16:50;26.02;;;13.10;;
12214;SDS011;6170;42.206;24.142;2022-12-18T11:19:23;28.55;;;13.63;;
12214;SDS011;6170;42.206;24.142;2022-12-18T11:21:54;35.70;;;14.70;;
12214;SDS011;6170;42.206;24.142;2022-12-18T11:24:24;35.45;;;15.57;;
12214;SDS011;6170;42.206;24.142;2022-12-18T11:26:54;44.03;;;21.65;;
12214;SDS011;6170;42.206;24.142;2022-12-18T11:29:23;19.58;;;11.45;;
12214;SDS011;6170;42.206;24.142;2022-12-18T11:32:05;21.65;;;12.45;;
12214;SDS011;6170;42.206;24.142;2022-12-18T11:34:49;18.42;;;11.77;;
12214;SDS011;6170;42.206;24.142;2022-12-18T11:37:20;19.73;;;11.60;;
12214;SDS011;6170;42.206;24.142;2022-12-18T11:39:49;17.45;;;10.63;;
12214;SDS011;6170;42.206;24.142;2022-12-18T11:42:22;23.35;;;11.85;;
12214;SDS011;6170;42.206;24.142;2022-12-18T11:44:55;23.83;;;11.68;;
12214;SDS011;6170;42.206;24.142;2022-12-18T11:47:27;19.98;;;11.55;;
12214;SDS011;6170;42.206;24.142;2022-12-18T11:50:00;21.42;;;11.85;;
12214;SDS011;6170;42.206;24.142;2022-12-18T11:52:30;24.60;;;12.20;;
12214;SDS011;6170;42.206;24.142;2022-12-18T11:55:05;25.98;;;13.20;;
12214;SDS011;6170;42.206;24.142;2022-12-18T11:57:39;20.73;;;12.65;;
12214;SDS011;6170;42.206;24.142;2022-12-18T12:00:13;24.55;;;13.38;;
12214;SDS011;6170;42.206;24.142;2022-12-18T12:05:54;22.17;;;13.02;;
12214;SDS011;6170;42.206;24.142;2022-12-18T12:08:35;26.65;;;14.45;;
12214;SDS011;6170;42.206;24.142;2022-12-18T12:11:12;28.80;;;14.80;;
12214;SDS011;6170;42.206;24.142;2022-12-18T12:13:49;28.10;;;13.77;;
12214;SDS011;6170;42.206;24.142;2022-12-18T12:16:22;25.58;;;13.57;;
12214;SDS011;6170;42.206;24.142;2022-12-18T12:18:59;20.15;;;11.77;;
12214;SDS011;6170;42.206;24.142;2022-12-18T12:21:38;23.50;;;12.00;;
12214;SDS011;6170;42.206;24.142;2022-12-18T12:24:12;24.38;;;13.75;;
12214;SDS011;6170;42.206;24.142;2022-12-18T12:26:55;23.98;;;13.82;;
12214;SDS011;6170;42.206;24.142;2022-12-18T12:29:35;30.35;;;15.05;;
12214;SDS011;6170;42.206;24.142;2022-12-18T12:32:13;34.15;;;16.02;;
12214;SDS011;6170;42.206;24.142;2022-12-18T12:35:02;28.27;;;14.30;;
12214;SDS011;6170;42.206;24.142;2022-12-18T12:37:42;22.38;;;12.45;;
12214;SDS011;6170;42.206;24.142;2022-12-18T12:40:26;18.25;;;10.32;;
12214;SDS011;6170;42.206;24.142;2022-12-18T12:42:54;21.77;;;11.75;;
12214;SDS011;6170;42.206;24.142;2022-12-18T12:45:40;20.92;;;11.23;;
12214;SDS011;6170;42.206;24.142;2022-12-18T12:48:13;20.50;;;10.82;;
12214;SDS011;6170;42.206;24.142;2022-12-18T12:50:43;21.88;;;10.50;;
12214;SDS011;6170;42.206;24.142;2022-12-18T12:53:14;21.75;;;11.18;;
12214;SDS011;6170;42.206;24.142;2022-12-18T12:55:47;35.45;;;11.57;;
12214;SDS011;6170;42.206;24.142;2022-12-18T12:58:16;19.35;;;10.45;;
12214;SDS011;6170;42.206;24.142;2022-12-18T13:00:50;17.15;;;10.23;;
12214;SDS011;6170;42.206;24.142;2022-12-18T13:03:24;22.25;;;10.95;;
12214;SDS011;6170;42.206;24.142;2022-12-18T13:06:02;20.83;;;11.05;;
12214;SDS011;6170;42.206;24.142;2022-12-18T15:31:26;19.35;;;11.43;;
12214;SDS011;6170;42.206;24.142;2022-12-18T15:34:00;18.60;;;11.90;;
12214;SDS011;6170;42.206;24.142;2022-12-18T15:36:35;23.83;;;13.80;;
12214;SDS011;6170;42.206;24.142;2022-12-18T15:39:03;21.08;;;12.18;;
12214;SDS011;6170;42.206;24.142;2022-12-18T15:41:31;25.08;;;12.60;;
12214;SDS011;6170;42.206;24.142;2022-12-18T15:43:59;22.70;;;14.07;;
12214;SDS011;6170;42.206;24.142;2022-12-18T15:46:26;31.27;;;15.38;;
12214;SDS011;6170;42.206;24.142;2022-12-18T15:48:53;25.98;;;12.73;;
12214;SDS011;6170;42.206;24.142;2022-12-18T15:51:23;23.58;;;12.85;;
12214;SDS011;6170;42.206;24.142;2022-12-18T15:53:52;23.00;;;12.48;;
12214;SDS011;6170;42.206;24.142;2022-12-18T15:56:22;23.92;;;12.45;;
12214;SDS011;6170;42.206;24.142;2022-12-18T15:59:08;25.75;;;13.00;;
12214;SDS011;6170;42.206;24.142;2022-12-18T16:01:38;28.15;;;14.15;;
12214;SDS011;6170;42.206;24.142;2022-12-18T16:04:06;30.63;;;14.98;;
12214;SDS011;6170;42.206;24.142;2022-12-18T16:06:35;28.17;;;14.73;;
12214;SDS011;6170;42.206;24.142;2022-12-18T16:09:02;32.38;;;16.25;;
12214;SDS011;6170;42.206;24.142;2022-12-18T16:11:29;30.10;;;16.17;;
12214;SDS011;6170;42.206;24.142;2022-12-18T16:14:05;34.40;;;18.15;;
12214;SDS011;6170;42.206;24.142;2022-12-18T16:16:32;30.83;;;16.83;;
12214;SDS011;6170;42.206;24.142;2022-12-18T16:19:01;37.17;;;17.25;;
12214;SDS011;6170;42.206;24.142;2022-12-18T16:21:27;30.88;;;17.02;;
12214;SDS011;6170;42.206;24.142;2022-12-18T16:23:54;34.80;;;18.08;;
12214;SDS011;6170;42.206;24.142;2022-12-18T16:26:21;32.17;;;18.42;;
12214;SDS011;6170;42.206;24.142;2022-12-18T16:28:48;29.05;;;15.82;;
12214;SDS011;6170;42.206;24.142;2022-12-18T16:31:15;25.58;;;14.52;;
12214;SDS011;6170;42.206;24.142;2022-12-18T16:33:42;30.77;;;15.85;;
12214;SDS011;6170;42.206;24.142;2022-12-18T16:36:10;39.25;;;21.35;;
12214;SDS011;6170;42.206;24.142;2022-12-18T16:38:36;37.13;;;19.95;;
12214;SDS011;6170;42.206;24.142;2022-12-18T16:41:05;40.28;;;19.48;;
12214;SDS011;6170;42.206;24.142;2022-12-18T16:44:00;35.95;;;17.08;;
12214;SDS011;6170;42.206;24.142;2022-12-18T16:46:27;47.03;;;22.83;;
12214;SDS011;6170;42.206;24.142;2022-12-18T16:48:54;44.53;;;22.38;;
12214;SDS011;6170;42.206;24.142;2022-12-18T16:51:24;42.60;;;22.48;;
12214;SDS011;6170;42.206;24.142;2022-12-18T16:53:51;44.42;;;22.45;;
12214;SDS011;6170;42.206;24.142;2022-12-18T16:56:18;40.42;;;21.80;;
12214;SDS011;6170;42.206;24.142;2022-12-18T16:58:49;48.38;;;23.58;;
12214;SDS011;6170;42.206;24.142;2022-12-18T17:01:16;35.97;;;20.05;;
12214;SDS011;6170;42.206;24.142;2022-12-18T17:03:43;33.10;;;18.17;;
12214;SDS011;6170;42.206;24.142;2022-12-18T17:06:10;36.55;;;20.17;;
12214;SDS011;6170;42.206;24.142;2022-12-18T17:08:38;40.22;;;21.48;;
12214;SDS011;6170;42.206;24.142;2022-12-18T17:11:05;37.28;;;19.45;;
12214;SDS011;6170;42.206;24.142;2022-12-18T17:13:33;29.58;;;17.02;;
12214;SDS011;6170;42.206;24.142;2022-12-18T17:16:03;28.17;;;14.55;;
12214;SDS011;6170;42.206;24.142;2022-12-18T17:18:32;23.35;;;14.38;;